sensor_id;sensor_type;location;lat;lon;timestamp;pressure;altitude;pressure_sealevel;temperature;humidity
69245;BME280;56357;52.304;4.870;2023-03-23T00:01:58;100279.00;;;19.24;56.67
69245;BME280;56357;52.304;4.870;2023-03-23T00:04:24;100291.34;;;19.23;56.64
69245;BME280;56357;52.304;4.870;2023-03-23T00:06:52;100294.47;;;19.22;56.74
69245;BME280;56357;52.304;4.870;2023-03-23T00:09:19;100278.78;;;19.21;56.61
69245;BME280;56357;52.304;4.870;2023-03-23T00:11:49;100288.84;;;19.22;56.62
69245;BME280;56357;52.304;4.870;2023-03-23T00:14:17;100285.19;;;19.21;56.60
69245;BME280;56357;52.304;4.870;2023-03-23T00:16:48;100272.94;;;19.17;56.66
69245;BME280;56357;52.304;4.870;2023-03-23T00:19:16;100277.16;;;19.14;56.58
69245;BME280;56357;52.304;4.870;2023-03-23T00:21:44;100289.53;;;19.13;56.68
69245;BME280;56357;52.304;4.870;2023-03-23T00:24:16;100292.63;;;19.12;56.88
69245;BME280;56357;52.304;4.870;2023-03-23T00:26:44;100283.09;;;19.13;56.58
69245;BME280;56357;52.304;4.870;2023-03-23T00:29:14;100287.31;;;19.10;56.70
69245;BME280;56357;52.304;4.870;2023-03-23T00:31:42;100278.38;;;19.08;56.77
69245;BME280;56357;52.304;4.870;2023-03-23T00:34:13;100274.72;;;19.08;56.49
69245;BME280;56357;52.304;4.870;2023-03-23T00:36:48;100264.13;;;19.05;56.44
69245;BME280;56357;52.304;4.870;2023-03-23T00:39:15;100254.31;;;19.02;56.67
69245;BME280;56357;52.304;4.870;2023-03-23T00:41:43;100260.78;;;19.03;56.63
69245;BME280;56357;52.304;4.870;2023-03-23T00:44:11;100256.28;;;19.02;56.45
69245;BME280;56357;52.304;4.870;2023-03-23T00:46:42;100261.06;;;19.01;56.61
69245;BME280;56357;52.304;4.870;2023-03-23T00:49:13;100263.56;;;19.03;56.56
69245;BME280;56357;52.304;4.870;2023-03-23T00:51:41;100251.28;;;18.99;56.70
69245;BME280;56357;52.304;4.870;2023-03-23T00:54:08;100248.47;;;18.99;56.44
69245;BME280;56357;52.304;4.870;2023-03-23T00:56:35;100249.31;;;18.99;56.32
69245;BME280;56357;52.304;4.870;2023-03-23T00:59:03;100241.22;;;18.98;56.57
69245;BME280;56357;52.304;4.870;2023-03-23T01:01:30;100247.63;;;18.98;56.84
69245;BME280;56357;52.304;4.870;2023-03-23T01:03:58;100245.13;;;18.97;56.66
69245;BME280;56357;52.304;4.870;2023-03-23T01:06:27;100244.59;;;18.95;56.42
69245;BME280;56357;52.304;4.870;2023-03-23T01:08:56;100249.38;;;18.94;56.42
69245;BME280;56357;52.304;4.870;2023-03-23T01:11:22;100254.16;;;18.94;56.58
69245;BME280;56357;52.304;4.870;2023-03-23T01:13:50;100242.41;;;18.92;56.82
69245;BME280;56357;52.304;4.870;2023-03-23T01:16:16;100247.53;;;18.85;56.56
69245;BME280;56357;52.304;4.870;2023-03-23T01:18:42;100232.31;;;18.91;56.46
69245;BME280;56357;52.304;4.870;2023-03-23T01:21:12;100232.31;;;18.91;56.50
69245;BME280;56357;52.304;4.870;2023-03-23T01:23:39;100211.00;;;18.90;56.39
69245;BME280;56357;52.304;4.870;2023-03-23T01:26:11;100220.63;;;18.84;56.85
69245;BME280;56357;52.304;4.870;2023-03-23T01:28:38;100216.66;;;18.85;56.76
69245;BME280;56357;52.304;4.870;2023-03-23T01:31:16;100213.28;;;18.88;56.36
69245;BME280;56357;52.304;4.870;2023-03-23T01:33:44;100202.06;;;18.88;56.34
69245;BME280;56357;52.304;4.870;2023-03-23T01:36:13;100216.09;;;18.88;56.16
69245;BME280;56357;52.304;4.870;2023-03-23T01:38:42;100217.19;;;18.87;56.38
69245;BME280;56357;52.304;4.870;2023-03-23T01:41:09;100193.63;;;18.88;56.18
69245;BME280;56357;52.304;4.870;2023-03-23T01:43:52;100203.78;;;18.84;56.26
69245;BME280;56357;52.304;4.870;2023-03-23T01:46:19;100205.22;;;18.81;56.43
69245;BME280;56357;52.304;4.870;2023-03-23T01:48:48;100215.59;;;18.81;56.53
69245;BME280;56357;52.304;4.870;2023-03-23T01:51:18;100204.91;;;18.83;56.45
69245;BME280;56357;52.304;4.870;2023-03-23T01:53:56;100200.38;;;18.87;56.03
69245;BME280;56357;52.304;4.870;2023-03-23T01:56:26;100200.38;;;18.87;56.02
69245;BME280;56357;52.304;4.870;2023-03-23T01:58:55;100202.72;;;18.80;56.24
69245;BME280;56357;52.304;4.870;2023-03-23T02:01:23;100195.19;;;18.75;56.44
69245;BME280;56357;52.304;4.870;2023-03-23T02:03:51;100183.16;;;18.75;56.33
69245;BME280;56357;52.304;4.870;2023-03-23T02:06:18;100181.72;;;18.77;56.29
69245;BME280;56357;52.304;4.870;2023-03-23T02:08:48;100182.63;;;18.73;56.31
69245;BME280;56357;52.304;4.870;2023-03-23T02:11:20;100180.91;;;18.77;56.19
69245;BME280;56357;52.304;4.870;2023-03-23T02:13:48;100183.44;;;18.73;56.14
69245;BME280;56357;52.304;4.870;2023-03-23T02:27:11;100184.38;;;18.69;56.45
69245;BME280;56357;52.304;4.870;2023-03-23T02:34:56;100170.88;;;18.71;56.28
69245;BME280;56357;52.304;4.870;2023-03-23T02:37:36;100166.69;;;18.68;56.05
69245;BME280;56357;52.304;4.870;2023-03-23T02:40:13;100182.16;;;18.66;56.19
69245;BME280;56357;52.304;4.870;2023-03-23T02:42:43;100186.09;;;18.65;56.35
69245;BME280;56357;52.304;4.870;2023-03-23T02:45:14;100179.66;;;18.64;56.24
69245;BME280;56357;52.304;4.870;2023-03-23T02:47:43;100177.47;;;18.61;56.10
69245;BME280;56357;52.304;4.870;2023-03-23T02:50:14;100175.47;;;18.62;56.49
69245;BME280;56357;52.304;4.870;2023-03-23T02:52:43;100161.16;;;18.63;56.32
69245;BME280;56357;52.304;4.870;2023-03-23T02:55:11;100173.81;;;18.61;56.52
69245;BME280;56357;52.304;4.870;2023-03-23T02:57:38;100176.00;;;18.64;56.21
69245;BME280;56357;52.304;4.870;2023-03-23T03:00:07;100161.44;;;18.62;56.46
69245;BME280;56357;52.304;4.870;2023-03-23T03:02:42;100171.53;;;18.63;56.12
69245;BME280;56357;52.304;4.870;2023-03-23T03:08:25;100164.56;;;18.60;56.27
69245;BME280;56357;52.304;4.870;2023-03-23T03:10:54;100160.63;;;18.61;56.44
69245;BME280;56357;52.304;4.870;2023-03-23T03:18:45;100160.84;;;18.65;56.21
69245;BME280;56357;52.304;4.870;2023-03-23T03:21:16;100176.84;;;18.64;56.13
69245;BME280;56357;52.304;4.870;2023-03-23T03:23:46;100157.44;;;18.68;56.18
69245;BME280;56357;52.304;4.870;2023-03-23T03:26:15;100143.50;;;18.63;56.32
69245;BME280;56357;52.304;4.870;2023-03-23T03:28:44;100149.03;;;18.68;56.34
69245;BME280;56357;52.304;4.870;2023-03-23T03:31:15;100174.03;;;18.64;56.31
69245;BME280;56357;52.304;4.870;2023-03-23T03:33:43;100187.44;;;18.67;56.22
69245;BME280;56357;52.304;4.870;2023-03-23T03:36:16;100198.94;;;18.71;56.05
69245;BME280;56357;52.304;4.870;2023-03-23T03:38:45;100201.19;;;18.69;56.17
69245;BME280;56357;52.304;4.870;2023-03-23T03:41:12;100209.59;;;18.69;56.07
69245;BME280;56357;52.304;4.870;2023-03-23T03:43:38;100193.31;;;18.71;56.30
69245;BME280;56357;52.304;4.870;2023-03-23T03:46:05;100199.19;;;18.69;56.17
69245;BME280;56357;52.304;4.870;2023-03-23T03:48:32;100191.09;;;18.68;56.35
69245;BME280;56357;52.304;4.870;2023-03-23T03:50:58;100189.44;;;18.67;56.17
69245;BME280;56357;52.304;4.870;2023-03-23T03:53:26;100191.72;;;18.65;56.31
69245;BME280;56357;52.304;4.870;2023-03-23T03:55:52;100195.47;;;18.55;56.82
69245;BME280;56357;52.304;4.870;2023-03-23T03:58:21;100193.44;;;18.61;56.65
69245;BME280;56357;52.304;4.870;2023-03-23T04:00:48;100196.16;;;18.66;56.42
69245;BME280;56357;52.304;4.870;2023-03-23T04:03:15;100187.53;;;18.62;56.82
69245;BME280;56357;52.304;4.870;2023-03-23T04:05:42;100186.41;;;18.63;56.64
69245;BME280;56357;52.304;4.870;2023-03-23T04:08:11;100182.53;;;18.59;56.73
69245;BME280;56357;52.304;4.870;2023-03-23T04:10:37;100189.44;;;18.67;56.75
69245;BME280;56357;52.304;4.870;2023-03-23T04:13:04;100204.22;;;18.72;56.56
69245;BME280;56357;52.304;4.870;2023-03-23T04:15:31;100201.78;;;18.66;56.79
69245;BME280;56357;52.304;4.870;2023-03-23T04:17:57;100185.47;;;18.68;56.78
69245;BME280;56357;52.304;4.870;2023-03-23T04:20:24;100211.03;;;18.66;56.73
69245;BME280;56357;52.304;4.870;2023-03-23T04:22:51;100207.34;;;18.71;56.43
69245;BME280;56357;52.304;4.870;2023-03-23T04:25:20;100227.03;;;18.66;56.85
69245;BME280;56357;52.304;4.870;2023-03-23T04:27:48;100223.31;;;18.70;56.75
69245;BME280;56357;52.304;4.870;2023-03-23T04:30:22;100208.53;;;18.65;56.97
69245;BME280;56357;52.304;4.870;2023-03-23T04:32:50;100224.16;;;18.71;56.69
69245;BME280;56357;52.304;4.870;2023-03-23T04:35:22;100223.03;;;18.72;56.69
69245;BME280;56357;52.304;4.870;2023-03-23T04:37:50;100230.91;;;18.70;56.55
69245;BME280;56357;52.304;4.870;2023-03-23T04:40:16;100230.66;;;18.66;56.65
69245;BME280;56357;52.304;4.870;2023-03-23T04:42:44;100234.53;;;18.70;56.78
69245;BME280;56357;52.304;4.870;2023-03-23T04:45:14;100236.50;;;18.70;56.70
69245;BME280;56357;52.304;4.870;2023-03-23T04:47:42;100239.84;;;18.72;56.86
69245;BME280;56357;52.304;4.870;2023-03-23T04:50:19;100239.94;;;18.67;56.79
69245;BME280;56357;52.304;4.870;2023-03-23T04:52:46;100247.97;;;18.73;56.76
69245;BME280;56357;52.304;4.870;2023-03-23T04:55:14;100244.88;;;18.75;56.60
69245;BME280;56357;52.304;4.870;2023-03-23T04:57:40;100252.22;;;18.71;56.87
69245;BME280;56357;52.304;4.870;2023-03-23T05:00:07;100256.75;;;18.67;57.04
69245;BME280;56357;52.304;4.870;2023-03-23T05:02:36;100244.06;;;18.69;56.99
69245;BME280;56357;52.304;4.870;2023-03-23T05:05:05;100241.88;;;18.66;57.00
69245;BME280;56357;52.304;4.870;2023-03-23T05:07:31;100242.13;;;18.70;56.97
69245;BME280;56357;52.304;4.870;2023-03-23T05:09:58;100256.69;;;18.72;56.78
69245;BME280;56357;52.304;4.870;2023-03-23T05:12:24;100242.88;;;18.75;56.69
69245;BME280;56357;52.304;4.870;2023-03-23T05:14:51;100244.25;;;18.78;56.77
69245;BME280;56357;52.304;4.870;2023-03-23T05:17:18;100249.69;;;18.69;56.98
69245;BME280;56357;52.304;4.870;2023-03-23T05:19:44;100259.47;;;18.72;57.12
69245;BME280;56357;52.304;4.870;2023-03-23T05:22:13;100266.41;;;18.79;56.77
69245;BME280;56357;52.304;4.870;2023-03-23T05:24:40;100262.75;;;18.79;56.81
69245;BME280;56357;52.304;4.870;2023-03-23T05:27:10;100253.28;;;18.75;56.92
69245;BME280;56357;52.304;4.870;2023-03-23T05:29:37;100248.56;;;18.70;56.86
69245;BME280;56357;52.304;4.870;2023-03-23T05:32:07;100258.28;;;18.78;56.88
69245;BME280;56357;52.304;4.870;2023-03-23T05:34:34;100260.03;;;18.74;57.06
69245;BME280;56357;52.304;4.870;2023-03-23T05:37:02;100263.91;;;18.78;56.96
69245;BME280;56357;52.304;4.870;2023-03-23T05:39:30;100258.81;;;18.80;56.86
69245;BME280;56357;52.304;4.870;2023-03-23T05:41:57;100260.22;;;18.82;56.56
69245;BME280;56357;52.304;4.870;2023-03-23T05:44:24;100270.66;;;18.77;56.97
69245;BME280;56357;52.304;4.870;2023-03-23T05:46:51;100276.00;;;18.73;57.06
69245;BME280;56357;52.304;4.870;2023-03-23T05:49:18;100283.13;;;18.66;57.07
69245;BME280;56357;52.304;4.870;2023-03-23T05:51:45;100276.00;;;18.73;56.82
69245;BME280;56357;52.304;4.870;2023-03-23T05:54:12;100283.47;;;18.83;56.61
69245;BME280;56357;52.304;4.870;2023-03-23T05:56:39;100274.03;;;18.74;56.80
69245;BME280;56357;52.304;4.870;2023-03-23T05:59:06;100289.81;;;18.70;56.83
69245;BME280;56357;52.304;4.870;2023-03-23T06:01:33;100290.31;;;18.77;56.96
69245;BME280;56357;52.304;4.870;2023-03-23T06:04:00;100288.06;;;18.74;57.09
69245;BME280;56357;52.304;4.870;2023-03-23T06:06:27;100292.41;;;18.85;56.64
69245;BME280;56357;52.304;4.870;2023-03-23T06:08:55;100294.88;;;18.91;56.63
69245;BME280;56357;52.304;4.870;2023-03-23T06:11:23;100292.91;;;18.92;56.63
69245;BME280;56357;52.304;4.870;2023-03-23T06:13:50;100296.38;;;18.84;57.05
69245;BME280;56357;52.304;4.870;2023-03-23T06:16:16;100300.91;;;18.80;57.23
69245;BME280;56357;52.304;4.870;2023-03-23T06:18:43;100296.50;;;18.74;57.70
69245;BME280;56357;52.304;4.870;2023-03-23T06:21:10;100309.31;;;18.80;57.86
69245;BME280;56357;52.304;4.870;2023-03-23T06:23:37;100302.00;;;18.84;57.59
69245;BME280;56357;52.304;4.870;2023-03-23T06:26:06;100310.88;;;18.91;57.88
69245;BME280;56357;52.304;4.870;2023-03-23T06:28:34;100319.53;;;18.94;57.39
69245;BME280;56357;52.304;4.870;2023-03-23T06:31:02;100321.13;;;19.00;57.05
69245;BME280;56357;52.304;4.870;2023-03-23T06:33:30;100335.81;;;18.92;57.66
69245;BME280;56357;52.304;4.870;2023-03-23T06:35:57;100333.00;;;18.92;57.96
69245;BME280;56357;52.304;4.870;2023-03-23T06:38:23;100330.09;;;19.02;58.35
69245;BME280;56357;52.304;4.870;2023-03-23T06:40:52;100333.66;;;19.08;58.08
69245;BME280;56357;52.304;4.870;2023-03-23T06:43:19;100335.41;;;19.04;58.45
69245;BME280;56357;52.304;4.870;2023-03-23T06:45:45;100336.31;;;18.99;58.60
69245;BME280;56357;52.304;4.870;2023-03-23T06:48:12;100332.59;;;19.04;58.47
69245;BME280;56357;52.304;4.870;2023-03-23T06:50:42;100347.69;;;19.08;58.69
69245;BME280;56357;52.304;4.870;2023-03-23T06:53:09;100346.72;;;19.17;58.35
69245;BME280;56357;52.304;4.870;2023-03-23T06:55:36;100338.97;;;19.09;58.60
69245;BME280;56357;52.304;4.870;2023-03-23T06:58:04;100349.97;;;19.06;59.19
69245;BME280;56357;52.304;4.870;2023-03-23T07:00:31;100340.97;;;19.09;59.25
69245;BME280;56357;52.304;4.870;2023-03-23T07:02:57;100344.84;;;19.13;59.22
69245;BME280;56357;52.304;4.870;2023-03-23T07:05:24;100345.06;;;19.16;59.09
69245;BME280;56357;52.304;4.870;2023-03-23T07:07:51;100339.28;;;19.08;59.44
69245;BME280;56357;52.304;4.870;2023-03-23T07:10:18;100340.84;;;19.19;58.77
69245;BME280;56357;52.304;4.870;2023-03-23T07:12:44;100344.22;;;19.16;58.74
69245;BME280;56357;52.304;4.870;2023-03-23T07:15:10;100335.69;;;19.26;58.27
69245;BME280;56357;52.304;4.870;2023-03-23T07:17:38;100342.97;;;19.27;57.86
69245;BME280;56357;52.304;4.870;2023-03-23T07:20:05;100353.91;;;19.29;57.55
69245;BME280;56357;52.304;4.870;2023-03-23T07:22:32;100357.00;;;19.27;57.37
69245;BME280;56357;52.304;4.870;2023-03-23T07:24:59;100354.25;;;19.22;57.45
69245;BME280;56357;52.304;4.870;2023-03-23T07:27:25;100360.50;;;19.19;57.28
69245;BME280;56357;52.304;4.870;2023-03-23T07:29:52;100364.19;;;19.14;57.23
69245;BME280;56357;52.304;4.870;2023-03-23T07:32:19;100359.13;;;19.16;57.44
69245;BME280;56357;52.304;4.870;2023-03-23T07:34:45;100359.75;;;19.08;57.95
69245;BME280;56357;52.304;4.870;2023-03-23T07:37:12;100359.53;;;19.05;58.27
69245;BME280;56357;52.304;4.870;2023-03-23T07:39:38;100375.22;;;19.06;57.92
69245;BME280;56357;52.304;4.870;2023-03-23T07:42:05;100375.47;;;19.09;57.97
69245;BME280;56357;52.304;4.870;2023-03-23T07:44:32;100380.16;;;19.19;57.60
69245;BME280;56357;52.304;4.870;2023-03-23T07:46:59;100375.66;;;19.18;57.76
69245;BME280;56357;52.304;4.870;2023-03-23T07:49:25;100385.34;;;19.07;58.04
69245;BME280;56357;52.304;4.870;2023-03-23T07:51:52;100376.53;;;19.13;57.74
69245;BME280;56357;52.304;4.870;2023-03-23T07:54:19;100375.66;;;19.18;57.39
69245;BME280;56357;52.304;4.870;2023-03-23T07:56:45;100380.38;;;19.23;57.70
69245;BME280;56357;52.304;4.870;2023-03-23T07:59:12;100372.72;;;19.28;57.31
69245;BME280;56357;52.304;4.870;2023-03-23T08:01:39;100375.97;;;19.40;57.19
69245;BME280;56357;52.304;4.870;2023-03-23T08:04:05;100377.31;;;19.43;56.92
69245;BME280;56357;52.304;4.870;2023-03-23T08:06:33;100380.97;;;19.43;57.15
69245;BME280;56357;52.304;4.870;2023-03-23T08:09:01;100374.69;;;19.51;57.02
69245;BME280;56357;52.304;4.870;2023-03-23T08:11:28;100373.72;;;19.61;56.80
69245;BME280;56357;52.304;4.870;2023-03-23T08:13:54;100382.22;;;19.74;56.67
69245;BME280;56357;52.304;4.870;2023-03-23T08:16:21;100391.41;;;19.61;56.92
69245;BME280;56357;52.304;4.870;2023-03-23T08:18:47;100390.25;;;19.62;56.55
69245;BME280;56357;52.304;4.870;2023-03-23T08:21:14;100401.91;;;19.74;56.42
69245;BME280;56357;52.304;4.870;2023-03-23T08:23:40;100406.31;;;19.80;56.17
69245;BME280;56357;52.304;4.870;2023-03-23T08:26:08;100406.44;;;19.70;56.63
69245;BME280;56357;52.304;4.870;2023-03-23T08:28:35;100401.38;;;19.72;56.74
69245;BME280;56357;52.304;4.870;2023-03-23T08:31:11;100397.03;;;19.98;56.05
69245;BME280;56357;52.304;4.870;2023-03-23T08:33:39;100399.31;;;19.96;55.95
69245;BME280;56357;52.304;4.870;2023-03-23T08:36:06;100400.38;;;20.00;56.06
69245;BME280;56357;52.304;4.870;2023-03-23T08:38:33;100398.53;;;20.09;55.73
69245;BME280;56357;52.304;4.870;2023-03-23T08:41:01;100402.59;;;20.22;55.42
69245;BME280;56357;52.304;4.870;2023-03-23T08:43:30;100397.63;;;20.33;55.01
69245;BME280;56357;52.304;4.870;2023-03-23T08:45:58;100406.81;;;20.38;54.88
69245;BME280;56357;52.304;4.870;2023-03-23T08:48:24;100405.91;;;20.43;54.92
69245;BME280;56357;52.304;4.870;2023-03-23T08:50:51;100403.25;;;20.51;54.52
69245;BME280;56357;52.304;4.870;2023-03-23T08:53:18;100410.84;;;20.51;54.71
69245;BME280;56357;52.304;4.870;2023-03-23T08:55:47;100415.31;;;20.52;54.79
69245;BME280;56357;52.304;4.870;2023-03-23T08:58:14;100407.63;;;20.57;54.73
69245;BME280;56357;52.304;4.870;2023-03-23T09:00:41;100413.59;;;20.69;54.37
69245;BME280;56357;52.304;4.870;2023-03-23T09:03:07;100413.91;;;20.68;54.55
69245;BME280;56357;52.304;4.870;2023-03-23T09:05:33;100423.69;;;20.57;54.59
69245;BME280;56357;52.304;4.870;2023-03-23T09:08:00;100426.88;;;20.50;54.84
69245;BME280;56357;52.304;4.870;2023-03-23T09:10:29;100435.78;;;20.57;54.32
69245;BME280;56357;52.304;4.870;2023-03-23T09:12:56;100420.03;;;20.56;54.52
69245;BME280;56357;52.304;4.870;2023-03-23T09:15:23;100418.06;;;20.57;54.40
69245;BME280;56357;52.304;4.870;2023-03-23T09:17:51;100410.63;;;20.47;54.65
69245;BME280;56357;52.304;4.870;2023-03-23T09:20:21;100419.91;;;20.48;54.63
69245;BME280;56357;52.304;4.870;2023-03-23T09:22:52;100407.31;;;20.59;54.33
69245;BME280;56357;52.304;4.870;2023-03-23T09:25:21;100406.88;;;20.52;54.69
69245;BME280;56357;52.304;4.870;2023-03-23T09:27:55;100423.75;;;20.52;54.37
69245;BME280;56357;52.304;4.870;2023-03-23T09:30:28;100439.72;;;20.56;54.37
69245;BME280;56357;52.304;4.870;2023-03-23T09:32:56;100429.63;;;20.55;54.35
69245;BME280;56357;52.304;4.870;2023-03-23T09:35:26;100421.25;;;20.50;54.65
69245;BME280;56357;52.304;4.870;2023-03-23T09:37:53;100421.72;;;20.57;54.51
69245;BME280;56357;52.304;4.870;2023-03-23T09:40:22;100421.28;;;20.64;54.16
69245;BME280;56357;52.304;4.870;2023-03-23T09:43:29;100427.13;;;20.67;54.29
69245;BME280;56357;52.304;4.870;2023-03-23T09:48:40;100441.34;;;20.76;53.95
69245;BME280;56357;52.304;4.870;2023-03-23T09:53:47;100439.47;;;20.85;53.75
69245;BME280;56357;52.304;4.870;2023-03-23T09:56:16;100443.03;;;20.90;53.85
69245;BME280;56357;52.304;4.870;2023-03-23T10:01:22;100453.28;;;21.00;53.46
69245;BME280;56357;52.304;4.870;2023-03-23T10:03:55;100438.09;;;21.01;53.12
69245;BME280;56357;52.304;4.870;2023-03-23T10:06:25;100447.88;;;21.04;53.42
69245;BME280;56357;52.304;4.870;2023-03-23T10:08:54;100461.69;;;21.05;53.31
69245;BME280;56357;52.304;4.870;2023-03-23T10:14:22;100451.50;;;21.23;53.08
69245;BME280;56357;52.304;4.870;2023-03-23T10:17:19;100461.28;;;21.25;53.05
69245;BME280;56357;52.304;4.870;2023-03-23T10:20:00;100464.91;;;21.12;52.97
69245;BME280;56357;52.304;4.870;2023-03-23T10:22:35;100472.88;;;21.24;52.96
69245;BME280;56357;52.304;4.870;2023-03-23T10:28:12;100478.19;;;21.25;53.15
69245;BME280;56357;52.304;4.870;2023-03-23T10:30:42;100464.63;;;21.27;52.71
69245;BME280;56357;52.304;4.870;2023-03-23T10:33:24;100481.53;;;21.27;52.77
69245;BME280;56357;52.304;4.870;2023-03-23T10:35:57;100471.50;;;21.35;52.76
69245;BME280;56357;52.304;4.870;2023-03-23T10:38:33;100475.69;;;21.37;52.65
69245;BME280;56357;52.304;4.870;2023-03-23T10:41:09;100470.59;;;21.39;52.79
69245;BME280;56357;52.304;4.870;2023-03-23T10:43:37;100469.00;;;21.33;52.58
69245;BME280;56357;52.304;4.870;2023-03-23T10:46:34;100472.03;;;21.50;52.38
69245;BME280;56357;52.304;4.870;2023-03-23T10:49:09;100476.94;;;21.45;52.13
69245;BME280;56357;52.304;4.870;2023-03-23T10:51:44;100481.22;;;21.42;52.31
69245;BME280;56357;52.304;4.870;2023-03-23T10:54:11;100487.69;;;21.43;52.67
69245;BME280;56357;52.304;4.870;2023-03-23T10:56:43;100499.69;;;21.48;52.20
69245;BME280;56357;52.304;4.870;2023-03-23T10:59:26;100490.31;;;21.39;52.52
69245;BME280;56357;52.304;4.870;2023-03-23T11:01:57;100489.16;;;21.40;52.53
69245;BME280;56357;52.304;4.870;2023-03-23T11:04:25;100486.25;;;21.45;52.20
69245;BME280;56357;52.304;4.870;2023-03-23T11:06:57;100499.69;;;21.48;51.85
69245;BME280;56357;52.304;4.870;2023-03-23T11:09:39;100493.03;;;21.58;52.64
69245;BME280;56357;52.304;4.870;2023-03-23T11:12:18;100498.44;;;21.54;52.79
69245;BME280;56357;52.304;4.870;2023-03-23T11:14:45;100483.63;;;21.62;52.75
69245;BME280;56357;52.304;4.870;2023-03-23T11:17:26;100496.03;;;21.61;52.71
69245;BME280;56357;52.304;4.870;2023-03-23T11:19:53;100481.94;;;21.61;52.96
69245;BME280;56357;52.304;4.870;2023-03-23T11:22:26;100494.19;;;21.57;53.22
69245;BME280;56357;52.304;4.870;2023-03-23T11:24:55;100503.97;;;21.59;53.26
69245;BME280;56357;52.304;4.870;2023-03-23T11:27:23;100488.03;;;21.68;53.19
69245;BME280;56357;52.304;4.870;2023-03-23T11:30:07;100495.97;;;21.66;53.14
69245;BME280;56357;52.304;4.870;2023-03-23T11:32:35;100504.50;;;21.61;52.69
69245;BME280;56357;52.304;4.870;2023-03-23T11:35:11;100488.63;;;21.52;52.80
69245;BME280;56357;52.304;4.870;2023-03-23T11:37:53;100493.88;;;21.58;52.61
69245;BME280;56357;52.304;4.870;2023-03-23T11:40:23;100488.94;;;21.50;52.90
69245;BME280;56357;52.304;4.870;2023-03-23T11:55:57;100477.16;;;21.48;52.70
69245;BME280;56357;52.304;4.870;2023-03-23T11:58:27;100482.78;;;21.48;52.40
69245;BME280;56357;52.304;4.870;2023-03-23T12:01:16;100481.75;;;21.44;52.43
69245;BME280;56357;52.304;4.870;2023-03-23T12:04:00;100477.16;;;21.48;52.44
69245;BME280;56357;52.304;4.870;2023-03-23T12:09:15;100488.84;;;21.42;52.15
69245;BME280;56357;52.304;4.870;2023-03-23T12:12:13;100500.84;;;21.34;52.68
69245;BME280;56357;52.304;4.870;2023-03-23T12:15:08;100509.59;;;21.32;52.77
69245;BME280;56357;52.304;4.870;2023-03-23T12:17:51;100501.16;;;21.32;52.59
69245;BME280;56357;52.304;4.870;2023-03-23T12:21:12;100488.41;;;21.35;52.61
69245;BME280;56357;52.304;4.870;2023-03-23T12:24:03;100485.91;;;21.33;52.95
69245;BME280;56357;52.304;4.870;2023-03-23T12:26:41;100501.44;;;21.31;52.69
69245;BME280;56357;52.304;4.870;2023-03-23T12:29:23;100501.44;;;21.31;52.62
69245;BME280;56357;52.304;4.870;2023-03-23T12:32:13;100505.31;;;21.35;52.58
69245;BME280;56357;52.304;4.870;2023-03-23T12:48:20;100495.72;;;21.22;53.08
69245;BME280;56357;52.304;4.870;2023-03-23T12:51:09;100488.59;;;21.25;53.59
69245;BME280;56357;52.304;4.870;2023-03-23T12:53:55;100495.06;;;21.25;53.67
69245;BME280;56357;52.304;4.870;2023-03-23T12:56:34;100491.94;;;21.27;53.51
69245;BME280;56357;52.304;4.870;2023-03-23T12:59:23;100494.69;;;21.32;53.61
69245;BME280;56357;52.304;4.870;2023-03-23T13:01:59;100482.25;;;21.33;53.13
69245;BME280;56357;52.304;4.870;2023-03-23T13:04:32;100471.31;;;21.31;52.97
69245;BME280;56357;52.304;4.870;2023-03-23T13:07:06;100501.44;;;21.31;53.11
69245;BME280;56357;52.304;4.870;2023-03-23T13:12:17;100491.66;;;21.28;53.66
69245;BME280;56357;52.304;4.870;2023-03-23T13:14:56;100496.84;;;21.21;53.91
69245;BME280;56357;52.304;4.870;2023-03-23T13:22:52;100499.88;;;21.25;54.26
69245;BME280;56357;52.304;4.870;2023-03-23T13:25:37;100509.38;;;21.29;53.85
69245;BME280;56357;52.304;4.870;2023-03-23T13:28:14;100504.22;;;21.17;53.95
69245;BME280;56357;52.304;4.870;2023-03-23T13:31:13;100503.00;;;21.23;53.26
69245;BME280;56357;52.304;4.870;2023-03-23T13:33:58;100500.59;;;21.17;53.59
69245;BME280;56357;52.304;4.870;2023-03-23T13:36:29;100505.22;;;21.26;53.78
69245;BME280;56357;52.304;4.870;2023-03-23T13:38:58;100524.94;;;21.26;53.71
69245;BME280;56357;52.304;4.870;2023-03-23T13:41:26;100516.97;;;21.15;53.71
69245;BME280;56357;52.304;4.870;2023-03-23T13:44:05;100521.25;;;21.12;53.68
69245;BME280;56357;52.304;4.870;2023-03-23T13:46:31;100515.09;;;21.24;53.42
69245;BME280;56357;52.304;4.870;2023-03-23T13:52:01;100513.56;;;21.31;52.70
69245;BME280;56357;52.304;4.870;2023-03-23T13:54:40;100503.03;;;21.37;52.42
69245;BME280;56357;52.304;4.870;2023-03-23T13:57:32;100493.66;;;21.41;52.84
69245;BME280;56357;52.304;4.870;2023-03-23T14:00:11;100494.69;;;21.45;52.97
69245;BME280;56357;52.304;4.870;2023-03-23T14:02:40;100496.16;;;21.43;52.69
69245;BME280;56357;52.304;4.870;2023-03-23T14:05:19;100491.69;;;21.42;53.01
69245;BME280;56357;52.304;4.870;2023-03-23T14:08:03;100490.50;;;21.43;52.83
69245;BME280;56357;52.304;4.870;2023-03-23T14:13:19;100465.69;;;21.45;53.66
69245;BME280;56357;52.304;4.870;2023-03-23T14:17:04;100474.44;;;21.43;53.42
69245;BME280;56357;52.304;4.870;2023-03-23T14:19:01;100478.53;;;21.64;53.87
69245;BME280;56357;52.304;4.870;2023-03-23T14:21:36;100484.03;;;21.56;53.11
69245;BME280;56357;52.304;4.870;2023-03-23T14:24:31;100490.31;;;21.39;53.17
69245;BME280;56357;52.304;4.870;2023-03-23T14:29:32;100480.50;;;21.50;52.74
69245;BME280;56357;52.304;4.870;2023-03-23T14:31:59;100465.47;;;21.55;52.29
69245;BME280;56357;52.304;4.870;2023-03-23T14:34:28;100461.28;;;21.52;52.70